createdAt,value
2023-10-26T00:01:38.758Z,10.60
2023-10-26T00:06:40.771Z,10.60
2023-10-26T00:11:43.300Z,10.60
2023-10-26T00:16:45.989Z,10.60
2023-10-26T00:21:48.104Z,10.60
2023-10-26T00:26:50.415Z,10.60
2023-10-26T00:31:52.522Z,10.60
2023-10-26T00:36:54.692Z,10.60
2023-10-26T00:41:57.026Z,10.60
2023-10-26T00:46:59.199Z,10.60
2023-10-26T00:52:03.621Z,10.60
2023-10-26T00:57:05.827Z,10.60
2023-10-26T01:02:08.512Z,10.60
2023-10-26T01:07:10.533Z,10.60
2023-10-26T01:12:13.270Z,10.60
2023-10-26T01:17:16.296Z,10.60
2023-10-26T01:22:18.325Z,10.60
2023-10-26T01:27:20.792Z,10.60
2023-10-26T01:32:27.056Z,10.60
2023-10-26T01:37:29.088Z,10.60
2023-10-26T01:42:31.138Z,10.50
2023-10-26T01:47:33.256Z,10.50
2023-10-26T01:52:35.381Z,10.50
2023-10-26T01:57:37.436Z,10.50
2023-10-26T02:02:39.837Z,10.50
2023-10-26T02:07:41.925Z,10.50
2023-10-26T02:12:44.536Z,10.50
2023-10-26T02:17:46.608Z,10.50
2023-10-26T02:22:48.675Z,10.50
2023-10-26T02:27:50.750Z,10.50
2023-10-26T02:32:54.974Z,10.50
2023-10-26T02:37:57.033Z,10.40
2023-10-26T02:42:59.693Z,10.50
2023-10-26T02:48:02.118Z,10.40
2023-10-26T02:53:04.229Z,10.40
2023-10-26T02:58:07.426Z,10.40
2023-10-26T03:03:10.675Z,10.40
2023-10-26T03:08:13.147Z,10.40
2023-10-26T03:13:15.649Z,10.40
2023-10-26T03:18:17.792Z,10.40
2023-10-26T03:23:20.588Z,10.30
2023-10-26T03:28:24.020Z,10.30
2023-10-26T03:33:26.164Z,10.30
2023-10-26T03:38:28.282Z,10.30
2023-10-26T03:43:30.434Z,10.50
2023-10-26T03:48:36.780Z,10.40
2023-10-26T03:53:38.911Z,10.50
2023-10-26T03:58:41.034Z,10.50
2023-10-26T04:03:43.112Z,10.50
2023-10-26T04:08:45.146Z,10.50
2023-10-26T04:13:47.622Z,10.50
2023-10-26T04:18:49.704Z,10.40
2023-10-26T04:23:51.788Z,10.40
2023-10-26T04:28:54.393Z,10.40
2023-10-26T04:33:56.431Z,10.30
2023-10-26T04:38:58.485Z,10.30
2023-10-26T04:44:00.576Z,10.20
2023-10-26T04:49:02.717Z,10.20
2023-10-26T04:54:04.899Z,10.20
2023-10-26T04:59:06.954Z,10.20
2023-10-26T05:04:08.962Z,10.30
2023-10-26T05:09:11.002Z,10.30
2023-10-26T05:14:13.504Z,10.30
2023-10-26T05:24:45.469Z,10.30
2023-10-26T05:29:47.510Z,10.30
2023-10-26T05:34:49.525Z,10.30
2023-10-26T05:39:51.591Z,10.20
2023-10-26T05:44:57.069Z,10.30
2023-10-26T05:49:59.217Z,10.20
2023-10-26T05:55:01.215Z,10.10
2023-10-26T06:00:07.801Z,10.10
2023-10-26T06:05:14.104Z,10.10
2023-10-26T06:10:16.204Z,10.00
2023-10-26T06:15:18.555Z,10.00
2023-10-26T06:20:20.747Z,10.00
2023-10-26T06:25:22.904Z,10.00
2023-10-26T06:30:26.322Z,10.00
2023-10-26T06:35:28.371Z,10.00
2023-10-26T06:40:30.424Z,10.00
2023-10-26T06:45:32.527Z,10.00
2023-10-26T06:50:34.816Z,10.00
2023-10-26T06:55:36.859Z,10.10
2023-10-26T07:00:39.005Z,10.10
2023-10-26T07:05:41.913Z,10.20
2023-10-26T07:10:44.200Z,10.30
2023-10-26T07:15:46.772Z,10.40
2023-10-26T07:20:50.648Z,10.50
2023-10-26T07:25:52.743Z,10.50
2023-10-26T07:30:54.837Z,10.60
2023-10-26T07:36:00.086Z,10.50
2023-10-26T07:41:04.635Z,10.50
2023-10-26T07:46:06.979Z,10.50
2023-10-26T07:51:09.136Z,10.60
2023-10-26T07:56:11.185Z,10.70
2023-10-26T08:01:13.777Z,10.90
2023-10-26T08:06:34.707Z,11.00
2023-10-26T08:11:55.105Z,11.20
2023-10-26T08:16:59.307Z,11.40
2023-10-26T08:22:01.516Z,11.50
2023-10-26T08:27:04.054Z,11.80
2023-10-26T08:32:06.435Z,11.90
2023-10-26T08:37:13.749Z,12.10
2023-10-26T08:42:17.160Z,12.10
2023-10-26T08:47:22.852Z,12.20
2023-10-26T08:52:28.389Z,12.30
2023-10-26T08:57:31.471Z,12.50
2023-10-26T09:02:33.751Z,12.80
2023-10-26T09:07:36.364Z,12.60
2023-10-26T09:12:38.696Z,12.60
2023-10-26T09:17:41.216Z,12.60
2023-10-26T09:22:43.626Z,13.10
2023-10-26T09:27:49.663Z,14.40
2023-10-26T09:32:52.585Z,14.80
2023-10-26T09:37:54.961Z,14.60
2023-10-26T09:42:57.500Z,14.60
2023-10-26T09:48:01.448Z,14.30
2023-10-26T09:53:03.783Z,14.40
2023-10-26T09:58:08.805Z,14.30
2023-10-26T10:03:18.834Z,13.90
2023-10-26T10:08:58.711Z,14.50
2023-10-26T10:14:00.868Z,15.30
2023-10-26T10:19:22.426Z,14.90
2023-10-26T10:24:45.776Z,14.50
2023-10-26T10:29:48.159Z,14.00
2023-10-26T10:34:51.570Z,14.00
2023-10-26T10:40:18.715Z,14.20
2023-10-26T10:45:21.005Z,14.20
2023-10-26T10:50:27.742Z,14.40
2023-10-26T10:55:32.305Z,14.50
2023-10-26T11:00:47.081Z,14.40
2023-10-26T11:05:49.746Z,14.00
2023-10-26T11:10:51.920Z,13.70
2023-10-26T11:15:54.005Z,13.60
2023-10-26T11:20:56.777Z,13.50
2023-10-26T11:26:13.629Z,13.50
2023-10-26T11:31:15.754Z,13.70
2023-10-26T11:36:17.868Z,13.70
2023-10-26T11:41:29.479Z,13.60
2023-10-26T11:46:36.787Z,13.80
2023-10-26T11:51:44.480Z,13.80
2023-10-26T11:56:52.772Z,13.70
2023-10-26T12:01:54.881Z,13.70
2023-10-26T12:06:56.929Z,13.70
2023-10-26T12:11:58.997Z,13.70
2023-10-26T12:17:01.026Z,13.80
2023-10-26T12:22:03.622Z,13.80
2023-10-26T12:27:06.135Z,14.00
2023-10-26T12:32:08.179Z,13.90
2023-10-26T12:37:10.232Z,13.80
2023-10-26T12:42:12.340Z,13.90
2023-10-26T12:47:14.362Z,13.90
2023-10-26T12:52:16.399Z,14.00
2023-10-26T12:57:18.451Z,14.20
2023-10-26T13:02:20.480Z,14.20
2023-10-26T13:07:25.267Z,14.10
2023-10-26T13:12:30.266Z,14.10
2023-10-26T13:17:32.568Z,14.10
2023-10-26T13:22:34.953Z,14.20
2023-10-26T13:27:37.011Z,14.10
2023-10-26T13:32:39.125Z,13.90
2023-10-26T13:37:41.238Z,13.90
2023-10-26T13:42:43.338Z,13.80
2023-10-26T13:47:45.618Z,13.80
2023-10-26T13:52:47.724Z,13.70
2023-10-26T13:57:49.792Z,13.60
2023-10-26T14:02:52.091Z,13.50
2023-10-26T14:07:54.521Z,13.60
2023-10-26T14:12:56.689Z,13.80
2023-10-26T14:17:58.769Z,13.80
2023-10-26T14:23:02.854Z,13.60
2023-10-26T14:28:05.616Z,13.60
2023-10-26T14:33:07.830Z,13.60
2023-10-26T14:38:10.608Z,13.60
2023-10-26T14:43:13.158Z,13.60
2023-10-26T14:48:15.222Z,13.70
2023-10-26T14:53:17.431Z,13.70
2023-10-26T14:58:19.491Z,13.60
2023-10-26T15:03:21.489Z,13.50
2023-10-26T15:08:23.544Z,13.40
2023-10-26T15:13:25.567Z,13.10
2023-10-26T15:18:28.443Z,12.80
2023-10-26T15:23:30.783Z,12.80
2023-10-26T15:28:33.958Z,12.70
2023-10-26T15:33:36.020Z,12.50
2023-10-26T15:38:42.346Z,12.40
2023-10-26T15:43:44.451Z,12.30
2023-10-26T15:49:31.656Z,12.20
2023-10-26T15:54:09.389Z,12.10
2023-10-26T15:59:11.819Z,12.00
2023-10-26T16:04:13.907Z,11.80
2023-10-26T16:09:15.941Z,11.80
2023-10-26T16:14:18.033Z,11.80
2023-10-26T16:19:20.594Z,11.70
2023-10-26T16:24:23.030Z,11.70
2023-10-26T16:29:25.166Z,11.60
2023-10-26T16:34:27.242Z,11.50
2023-10-26T16:39:29.285Z,11.60
2023-10-26T16:44:31.512Z,11.50
2023-10-26T16:49:33.935Z,11.50
2023-10-26T16:54:36.012Z,11.40
2023-10-26T16:59:38.301Z,11.40
2023-10-26T17:04:41.171Z,11.40
2023-10-26T17:09:43.349Z,11.20
2023-10-26T17:19:47.059Z,11.00
2023-10-26T17:24:49.789Z,10.90
2023-10-26T17:29:52.061Z,10.90
2023-10-26T17:34:54.303Z,10.80
2023-10-26T17:39:56.544Z,10.90
2023-10-26T17:44:58.802Z,10.90
2023-10-26T17:50:01.127Z,10.90
2023-10-26T17:55:04.080Z,10.90
2023-10-26T18:00:09.810Z,10.90
2023-10-26T18:05:15.764Z,10.80
2023-10-26T18:10:20.966Z,10.70
2023-10-26T18:15:23.993Z,10.70
2023-10-26T18:20:26.243Z,10.60
2023-10-26T18:25:29.510Z,10.60
2023-10-26T18:30:31.796Z,10.60
2023-10-26T18:35:34.719Z,10.60
2023-10-26T18:40:39.307Z,10.60
2023-10-26T18:45:42.239Z,10.60
2023-10-26T18:50:47.635Z,10.50
2023-10-26T18:55:50.794Z,10.60
2023-10-26T19:00:53.678Z,10.60
2023-10-26T19:05:55.922Z,10.70
2023-10-26T19:10:58.184Z,10.70
2023-10-26T19:16:00.471Z,10.70
2023-10-26T19:26:54.426Z,10.70
2023-10-26T19:31:58.211Z,10.70
2023-10-26T19:37:00.479Z,10.80
2023-10-26T19:42:02.663Z,10.70
2023-10-26T19:47:07.884Z,10.80
2023-10-26T19:52:14.558Z,10.80
2023-10-26T19:57:17.676Z,10.90
2023-10-26T20:02:20.137Z,10.90
2023-10-26T20:07:22.378Z,10.90
2023-10-26T20:12:24.690Z,10.90
2023-10-26T20:17:26.976Z,10.80
2023-10-26T20:22:29.328Z,10.90
2023-10-26T20:27:31.534Z,10.90
2023-10-26T20:32:35.540Z,10.80
2023-10-26T20:37:37.970Z,10.80
2023-10-26T20:42:44.237Z,10.80
2023-10-26T20:47:46.605Z,10.70
2023-10-26T20:52:48.732Z,10.70
2023-10-26T20:57:51.128Z,10.60
2023-10-26T21:02:53.408Z,10.60
2023-10-26T21:07:56.174Z,10.60
2023-10-26T21:12:58.341Z,10.60
2023-10-26T21:18:00.538Z,10.50
2023-10-26T21:23:02.880Z,10.60
2023-10-26T21:28:05.170Z,10.50
2023-10-26T21:33:07.630Z,10.50
2023-10-26T21:38:09.897Z,10.50
2023-10-26T21:43:12.017Z,10.50
2023-10-26T21:48:14.963Z,10.50
2023-10-26T21:53:18.132Z,10.50
2023-10-26T21:58:20.290Z,10.50
2023-10-26T22:03:23.004Z,10.40
2023-10-26T22:08:25.081Z,10.40
2023-10-26T22:13:27.340Z,10.40
2023-10-26T22:18:29.606Z,10.40
2023-10-26T22:23:32.051Z,10.40
2023-10-26T22:28:34.368Z,10.40
2023-10-26T22:33:38.483Z,10.40
2023-10-26T22:38:42.675Z,10.40
2023-10-26T22:43:44.753Z,10.40
2023-10-26T22:48:46.859Z,10.40
2023-10-26T22:53:49.905Z,10.40
2023-10-26T22:58:52.175Z,10.40
2023-10-26T23:03:54.655Z,10.40
2023-10-26T23:09:00.652Z,10.40
2023-10-26T23:14:02.844Z,10.40
2023-10-26T23:19:06.201Z,10.40
2023-10-26T23:24:08.925Z,10.40
2023-10-26T23:29:11.301Z,10.50
2023-10-26T23:34:14.522Z,10.40
2023-10-26T23:39:17.427Z,10.50
2023-10-26T23:44:19.500Z,10.40
2023-10-26T23:49:21.713Z,10.50
2023-10-26T23:54:25.497Z,10.40
2023-10-26T23:59:27.654Z,10.50
